Current | Forecast
Updated: 5:30 AM CEST on September 20, 2017
Observed at Budapest Ferihegy, Hungary
Temperature 12°C
Humidity 100%
Dew Point 12°C
Wind Variable at 6 km/h
Pressure 1011 hPa (Rising)
Conditions Mostly Cloudy
Visibility 6.0 kilometers
UV 0 out of 16
Clouds Scattered Clouds (SCT) : 121 m
Mostly Cloudy (BKN) : 609 m
Yesterday's Maximum 15°C
Yesterday's Minimum 12°C approx.
Yesterday's Heating Degree Days 9 approx.
Sunrise6:25 AM CEST
Sunset6:43 PM CEST
Moon Rise6:20 AM CEST
Moon Set7:08 PM CEST
Moon PhaseMoon Phase
Waning Crescent
Raw METARMETAR LHBP 200330Z VRB03KT 6000 SCT004 BKN020 12/12 Q1011 NOSIG


Monday
. High: 57° F.
Tuesday
. High: 62° F.
Wednesday
. High: 66° F.
Thursday
. High: 66° F.
Friday
. High: 60° F.
Saturday
. High: 60° F.
Sunday
. High: 66° F.
Monday
. High: 64° F.

Units: English | Metric

Find the Weather for any City, State or Zipcode, or Country:

U.S. State List | Severe Weather | Tropical Storms | Ski Conditions
United States | Canada | Central America | South America | Asia | Europe | Australia | Africa | Islands

Weather Underground

© Copyright 2017
The Weather Company, LLC